sensor_id;sensor_type;location;lat;lon;timestamp;pressure;altitude;pressure_sealevel;temperature;humidity
31681;BME280;18281;51.364;9.566;2023-09-30T00:02:06;100810.16;;;12.38;100.00
31681;BME280;18281;51.364;9.566;2023-09-30T00:04:31;100820.69;;;12.03;100.00
31681;BME280;18281;51.364;9.566;2023-09-30T00:06:56;100824.19;;;12.21;100.00
31681;BME280;18281;51.364;9.566;2023-09-30T00:09:22;100825.56;;;12.11;100.00
31681;BME280;18281;51.364;9.566;2023-09-30T00:11:47;100814.44;;;11.87;100.00
31681;BME280;18281;51.364;9.566;2023-09-30T00:14:12;100824.66;;;11.93;100.00
31681;BME280;18281;51.364;9.566;2023-09-30T00:16:38;100821.00;;;11.97;100.00
31681;BME280;18281;51.364;9.566;2023-09-30T00:19:03;100821.69;;;12.01;100.00
31681;BME280;18281;51.364;9.566;2023-09-30T00:21:29;100823.31;;;11.84;100.00
31681;BME280;18281;51.364;9.566;2023-09-30T00:23:54;100826.72;;;11.86;100.00
31681;BME280;18281;51.364;9.566;2023-09-30T00:26:19;100829.56;;;11.82;100.00
31681;BME280;18281;51.364;9.566;2023-09-30T00:28:46;100834.50;;;11.89;100.00
31681;BME280;18281;51.364;9.566;2023-09-30T00:31:11;100837.63;;;11.98;100.00
31681;BME280;18281;51.364;9.566;2023-09-30T00:33:36;100833.94;;;11.83;100.00
31681;BME280;18281;51.364;9.566;2023-09-30T00:36:06;100832.66;;;11.53;100.00
31681;BME280;18281;51.364;9.566;2023-09-30T00:38:31;100834.00;;;11.43;100.00
31681;BME280;18281;51.364;9.566;2023-09-30T00:40:56;100827.19;;;11.39;100.00
31681;BME280;18281;51.364;9.566;2023-09-30T00:43:22;100825.97;;;11.27;100.00
31681;BME280;18281;51.364;9.566;2023-09-30T00:46:04;100830.16;;;11.31;100.00
31681;BME280;18281;51.364;9.566;2023-09-30T00:48:32;100835.91;;;11.20;100.00
31681;BME280;18281;51.364;9.566;2023-09-30T00:50:58;100841.56;;;11.11;100.00
31681;BME280;18281;51.364;9.566;2023-09-30T00:53:23;100841.97;;;11.02;100.00
31681;BME280;18281;51.364;9.566;2023-09-30T00:55:48;100844.41;;;10.86;100.00
31681;BME280;18281;51.364;9.566;2023-09-30T00:58:14;100847.03;;;11.06;100.00
31681;BME280;18281;51.364;9.566;2023-09-30T01:00:40;100847.13;;;11.05;100.00
31681;BME280;18281;51.364;9.566;2023-09-30T01:03:05;100845.59;;;10.79;100.00
31681;BME280;18281;51.364;9.566;2023-09-30T01:05:31;100851.69;;;10.79;100.00
31681;BME280;18281;51.364;9.566;2023-09-30T01:07:56;100854.88;;;10.87;100.00
31681;BME280;18281;51.364;9.566;2023-09-30T01:10:22;100861.09;;;11.05;100.00
31681;BME280;18281;51.364;9.566;2023-09-30T01:12:47;100867.47;;;11.00;100.00
31681;BME280;18281;51.364;9.566;2023-09-30T01:15:12;100872.44;;;11.06;100.00
31681;BME280;18281;51.364;9.566;2023-09-30T01:17:38;100871.94;;;10.98;100.00
31681;BME280;18281;51.364;9.566;2023-09-30T01:20:03;100866.66;;;10.77;100.00
31681;BME280;18281;51.364;9.566;2023-09-30T01:22:31;100863.09;;;10.57;100.00
31681;BME280;18281;51.364;9.566;2023-09-30T01:24:56;100872.47;;;10.63;100.00
31681;BME280;18281;51.364;9.566;2023-09-30T01:27:21;100875.06;;;10.65;100.00
31681;BME280;18281;51.364;9.566;2023-09-30T01:29:47;100881.50;;;10.78;100.00
31681;BME280;18281;51.364;9.566;2023-09-30T01:32:12;100882.25;;;10.82;100.00
31681;BME280;18281;51.364;9.566;2023-09-30T01:34:38;100885.53;;;10.87;100.00
31681;BME280;18281;51.364;9.566;2023-09-30T01:37:04;100897.53;;;10.50;100.00
31681;BME280;18281;51.364;9.566;2023-09-30T01:39:29;100897.75;;;10.66;100.00
31681;BME280;18281;51.364;9.566;2023-09-30T01:41:55;100888.06;;;10.47;100.00
31681;BME280;18281;51.364;9.566;2023-09-30T01:44:20;100889.78;;;10.69;100.00
31681;BME280;18281;51.364;9.566;2023-09-30T01:46:45;100900.63;;;10.39;100.00
31681;BME280;18281;51.364;9.566;2023-09-30T01:49:10;100901.78;;;10.32;100.00
31681;BME280;18281;51.364;9.566;2023-09-30T01:51:36;100899.69;;;10.40;100.00
31681;BME280;18281;51.364;9.566;2023-09-30T01:54:01;100892.69;;;10.40;100.00
31681;BME280;18281;51.364;9.566;2023-09-30T01:56:26;100885.78;;;10.16;100.00
31681;BME280;18281;51.364;9.566;2023-09-30T01:58:51;100882.66;;;10.28;100.00
31681;BME280;18281;51.364;9.566;2023-09-30T02:01:17;100895.25;;;10.42;100.00
31681;BME280;18281;51.364;9.566;2023-09-30T02:03:42;100899.53;;;10.45;100.00
31681;BME280;18281;51.364;9.566;2023-09-30T02:06:08;100898.66;;;10.44;100.00
31681;BME280;18281;51.364;9.566;2023-09-30T02:08:33;100901.91;;;10.29;100.00
31681;BME280;18281;51.364;9.566;2023-09-30T02:11:01;100910.56;;;10.31;100.00
31681;BME280;18281;51.364;9.566;2023-09-30T02:13:26;100896.47;;;10.33;100.00
31681;BME280;18281;51.364;9.566;2023-09-30T02:15:52;100889.16;;;10.19;100.00
31681;BME280;18281;51.364;9.566;2023-09-30T02:18:20;100895.88;;;10.04;100.00
31681;BME280;18281;51.364;9.566;2023-09-30T02:20:45;100911.50;;;10.07;100.00
31681;BME280;18281;51.364;9.566;2023-09-30T02:23:11;100911.34;;;10.11;100.00
31681;BME280;18281;51.364;9.566;2023-09-30T02:25:39;100915.28;;;10.00;100.00
31681;BME280;18281;51.364;9.566;2023-09-30T02:28:05;100909.59;;;10.11;100.00
31681;BME280;18281;51.364;9.566;2023-09-30T02:30:31;100901.31;;;10.22;100.00
31681;BME280;18281;51.364;9.566;2023-09-30T02:32:56;100898.44;;;10.06;100.00
31681;BME280;18281;51.364;9.566;2023-09-30T02:35:21;100895.69;;;10.09;100.00
31681;BME280;18281;51.364;9.566;2023-09-30T02:37:47;100890.72;;;10.01;100.00
31681;BME280;18281;51.364;9.566;2023-09-30T02:40:12;100889.41;;;10.13;100.00
31681;BME280;18281;51.364;9.566;2023-09-30T02:42:40;100901.13;;;10.04;100.00
31681;BME280;18281;51.364;9.566;2023-09-30T02:45:06;100905.56;;;10.02;100.00
31681;BME280;18281;51.364;9.566;2023-09-30T02:47:33;100906.97;;;10.11;100.00
31681;BME280;18281;51.364;9.566;2023-09-30T02:49:59;100907.78;;;9.89;100.00
31681;BME280;18281;51.364;9.566;2023-09-30T02:52:24;100909.84;;;9.81;100.00
31681;BME280;18281;51.364;9.566;2023-09-30T02:54:50;100902.38;;;9.94;100.00
31681;BME280;18281;51.364;9.566;2023-09-30T02:57:16;100890.47;;;9.85;100.00
31681;BME280;18281;51.364;9.566;2023-09-30T02:59:41;100894.06;;;9.83;100.00
31681;BME280;18281;51.364;9.566;2023-09-30T03:02:07;100902.75;;;9.85;100.00
31681;BME280;18281;51.364;9.566;2023-09-30T03:04:32;100910.19;;;9.96;100.00
31681;BME280;18281;51.364;9.566;2023-09-30T03:06:58;100903.22;;;9.95;100.00
31681;BME280;18281;51.364;9.566;2023-09-30T03:09:23;100883.28;;;9.90;100.00
31681;BME280;18281;51.364;9.566;2023-09-30T03:11:48;100892.94;;;9.90;100.00
31681;BME280;18281;51.364;9.566;2023-09-30T03:14:14;100907.06;;;9.86;100.00
31681;BME280;18281;51.364;9.566;2023-09-30T03:16:40;100909.41;;;9.94;100.00
31681;BME280;18281;51.364;9.566;2023-09-30T03:19:06;100917.31;;;9.92;100.00
31681;BME280;18281;51.364;9.566;2023-09-30T03:21:36;100913.50;;;10.01;100.00
31681;BME280;18281;51.364;9.566;2023-09-30T03:24:02;100920.34;;;9.81;100.00
31681;BME280;18281;51.364;9.566;2023-09-30T03:26:31;100924.56;;;9.85;100.00
31681;BME280;18281;51.364;9.566;2023-09-30T03:28:56;100937.53;;;9.66;100.00
31681;BME280;18281;51.364;9.566;2023-09-30T03:31:21;100940.28;;;9.62;100.00
31681;BME280;18281;51.364;9.566;2023-09-30T03:33:47;100939.25;;;9.67;100.00
31681;BME280;18281;51.364;9.566;2023-09-30T03:36:13;100936.78;;;9.61;100.00
31681;BME280;18281;51.364;9.566;2023-09-30T03:38:38;100945.22;;;9.71;100.00
31681;BME280;18281;51.364;9.566;2023-09-30T03:41:04;100946.06;;;9.95;100.00
31681;BME280;18281;51.364;9.566;2023-09-30T03:43:33;100943.44;;;9.95;100.00
31681;BME280;18281;51.364;9.566;2023-09-30T03:45:59;100930.78;;;9.83;100.00
31681;BME280;18281;51.364;9.566;2023-09-30T03:48:25;100921.47;;;9.50;100.00
31681;BME280;18281;51.364;9.566;2023-09-30T03:50:51;100903.03;;;9.52;100.00
31681;BME280;18281;51.364;9.566;2023-09-30T03:53:17;100905.72;;;9.50;100.00
31681;BME280;18281;51.364;9.566;2023-09-30T03:55:42;100904.50;;;9.61;100.00
31681;BME280;18281;51.364;9.566;2023-09-30T03:58:08;100912.72;;;9.75;100.00
31681;BME280;18281;51.364;9.566;2023-09-30T04:00:33;100916.38;;;9.71;100.00
31681;BME280;18281;51.364;9.566;2023-09-30T04:02:58;100917.91;;;9.77;100.00
31681;BME280;18281;51.364;9.566;2023-09-30T04:05:24;100918.50;;;9.59;100.00
31681;BME280;18281;51.364;9.566;2023-09-30T04:07:59;100924.78;;;9.55;100.00
31681;BME280;18281;51.364;9.566;2023-09-30T04:10:24;100922.22;;;9.54;100.00
31681;BME280;18281;51.364;9.566;2023-09-30T04:12:50;100927.16;;;9.63;100.00
31681;BME280;18281;51.364;9.566;2023-09-30T04:15:16;100925.72;;;9.78;100.00
31681;BME280;18281;51.364;9.566;2023-09-30T04:17:41;100933.34;;;9.61;100.00
31681;BME280;18281;51.364;9.566;2023-09-30T04:20:07;100940.06;;;9.42;100.00
31681;BME280;18281;51.364;9.566;2023-09-30T04:22:41;100948.97;;;9.38;100.00
31681;BME280;18281;51.364;9.566;2023-09-30T04:25:06;100947.22;;;9.39;100.00
31681;BME280;18281;51.364;9.566;2023-09-30T04:27:34;100930.19;;;9.51;100.00
31681;BME280;18281;51.364;9.566;2023-09-30T04:30:00;100932.94;;;9.22;100.00
31681;BME280;18281;51.364;9.566;2023-09-30T04:32:27;100936.41;;;9.23;100.00
31681;BME280;18281;51.364;9.566;2023-09-30T04:34:52;100939.41;;;9.12;100.00
31681;BME280;18281;51.364;9.566;2023-09-30T04:37:18;100942.34;;;9.03;100.00
31681;BME280;18281;51.364;9.566;2023-09-30T04:39:44;100940.31;;;9.11;100.00
31681;BME280;18281;51.364;9.566;2023-09-30T04:42:09;100941.81;;;9.18;100.00
31681;BME280;18281;51.364;9.566;2023-09-30T04:44:36;100945.88;;;9.27;100.00
31681;BME280;18281;51.364;9.566;2023-09-30T04:47:02;100943.19;;;9.29;100.00
31681;BME280;18281;51.364;9.566;2023-09-30T04:49:29;100953.94;;;9.46;100.00
31681;BME280;18281;51.364;9.566;2023-09-30T04:51:54;100955.53;;;9.25;100.00
31681;BME280;18281;51.364;9.566;2023-09-30T04:54:20;100960.63;;;9.04;100.00
31681;BME280;18281;51.364;9.566;2023-09-30T04:56:46;100960.81;;;9.00;100.00
31681;BME280;18281;51.364;9.566;2023-09-30T04:59:11;100954.22;;;9.13;100.00
31681;BME280;18281;51.364;9.566;2023-09-30T05:01:37;100959.69;;;9.32;100.00
31681;BME280;18281;51.364;9.566;2023-09-30T05:04:02;100954.97;;;9.17;100.00
31681;BME280;18281;51.364;9.566;2023-09-30T05:06:27;100956.22;;;9.05;100.00
31681;BME280;18281;51.364;9.566;2023-09-30T05:08:53;100957.19;;;9.02;100.00
31681;BME280;18281;51.364;9.566;2023-09-30T05:11:18;100958.38;;;8.94;100.00
31681;BME280;18281;51.364;9.566;2023-09-30T05:13:43;100955.00;;;8.90;100.00
31681;BME280;18281;51.364;9.566;2023-09-30T05:16:09;100964.69;;;8.88;100.00
31681;BME280;18281;51.364;9.566;2023-09-30T05:18:34;100969.44;;;9.02;100.00
31681;BME280;18281;51.364;9.566;2023-09-30T05:20:59;100973.56;;;9.09;100.00
31681;BME280;18281;51.364;9.566;2023-09-30T05:23:25;100964.00;;;9.08;100.00
31681;BME280;18281;51.364;9.566;2023-09-30T05:25:50;100967.03;;;8.96;100.00
31681;BME280;18281;51.364;9.566;2023-09-30T05:28:16;100968.19;;;8.87;100.00
31681;BME280;18281;51.364;9.566;2023-09-30T05:30:41;100968.84;;;8.94;100.00
31681;BME280;18281;51.364;9.566;2023-09-30T05:33:06;100968.25;;;8.85;100.00
31681;BME280;18281;51.364;9.566;2023-09-30T05:35:32;100990.00;;;8.87;100.00
31681;BME280;18281;51.364;9.566;2023-09-30T05:38:00;100987.13;;;9.47;100.00
31681;BME280;18281;51.364;9.566;2023-09-30T05:40:29;100988.41;;;10.32;100.00
31681;BME280;18281;51.364;9.566;2023-09-30T05:42:58;100989.75;;;10.64;100.00
31681;BME280;18281;51.364;9.566;2023-09-30T05:45:24;100988.53;;;10.73;100.00
31681;BME280;18281;51.364;9.566;2023-09-30T05:47:51;100995.28;;;10.80;100.00
31681;BME280;18281;51.364;9.566;2023-09-30T05:50:18;101003.81;;;10.85;100.00
31681;BME280;18281;51.364;9.566;2023-09-30T05:52:45;101002.78;;;10.89;100.00
31681;BME280;18281;51.364;9.566;2023-09-30T05:55:11;101010.28;;;10.99;100.00
31681;BME280;18281;51.364;9.566;2023-09-30T05:57:36;101012.75;;;11.03;100.00
31681;BME280;18281;51.364;9.566;2023-09-30T06:00:02;101009.31;;;11.01;100.00
31681;BME280;18281;51.364;9.566;2023-09-30T06:02:45;101006.59;;;11.03;100.00
31681;BME280;18281;51.364;9.566;2023-09-30T06:05:11;101010.88;;;11.05;100.00
31681;BME280;18281;51.364;9.566;2023-09-30T06:07:37;101016.06;;;11.07;100.00
31681;BME280;18281;51.364;9.566;2023-09-30T06:10:02;101014.34;;;11.06;100.00
31681;BME280;18281;51.364;9.566;2023-09-30T06:12:28;101003.81;;;11.07;100.00
31681;BME280;18281;51.364;9.566;2023-09-30T06:14:53;101002.03;;;11.08;100.00
31681;BME280;18281;51.364;9.566;2023-09-30T06:17:19;101002.88;;;11.08;100.00
31681;BME280;18281;51.364;9.566;2023-09-30T06:19:47;100995.97;;;11.06;100.00
31681;BME280;18281;51.364;9.566;2023-09-30T06:22:14;100990.97;;;11.00;100.00
31681;BME280;18281;51.364;9.566;2023-09-30T06:24:39;100994.13;;;11.08;100.00
31681;BME280;18281;51.364;9.566;2023-09-30T06:27:05;100992.69;;;11.01;100.00
31681;BME280;18281;51.364;9.566;2023-09-30T06:29:30;100990.72;;;11.06;100.00
31681;BME280;18281;51.364;9.566;2023-09-30T06:31:56;101002.09;;;11.06;100.00
31681;BME280;18281;51.364;9.566;2023-09-30T06:34:21;101004.78;;;11.05;100.00
31681;BME280;18281;51.364;9.566;2023-09-30T06:36:46;101010.50;;;10.94;100.00
31681;BME280;18281;51.364;9.566;2023-09-30T06:39:11;101009.88;;;10.87;100.00
31681;BME280;18281;51.364;9.566;2023-09-30T06:41:37;101016.34;;;11.01;100.00
31681;BME280;18281;51.364;9.566;2023-09-30T06:44:02;101015.03;;;11.11;100.00
31681;BME280;18281;51.364;9.566;2023-09-30T06:46:27;101027.25;;;11.12;100.00
31681;BME280;18281;51.364;9.566;2023-09-30T06:48:53;101032.50;;;11.12;100.00
31681;BME280;18281;51.364;9.566;2023-09-30T06:51:18;101038.69;;;11.11;100.00
31681;BME280;18281;51.364;9.566;2023-09-30T06:53:43;101041.31;;;11.11;100.00
31681;BME280;18281;51.364;9.566;2023-09-30T06:56:08;101039.63;;;11.10;100.00
31681;BME280;18281;51.364;9.566;2023-09-30T06:58:38;101053.53;;;11.12;100.00
31681;BME280;18281;51.364;9.566;2023-09-30T07:01:03;101064.78;;;11.16;100.00
31681;BME280;18281;51.364;9.566;2023-09-30T07:03:31;101060.50;;;11.13;100.00
31681;BME280;18281;51.364;9.566;2023-09-30T07:05:57;101062.09;;;11.17;100.00
31681;BME280;18281;51.364;9.566;2023-09-30T07:08:25;101063.06;;;11.15;100.00
31681;BME280;18281;51.364;9.566;2023-09-30T07:10:51;101061.09;;;11.20;100.00
31681;BME280;18281;51.364;9.566;2023-09-30T07:13:17;101060.97;;;11.23;100.00
31681;BME280;18281;51.364;9.566;2023-09-30T07:15:43;101057.56;;;11.21;100.00
31681;BME280;18281;51.364;9.566;2023-09-30T07:18:08;101068.94;;;11.21;100.00
31681;BME280;18281;51.364;9.566;2023-09-30T07:20:39;101071.34;;;11.26;100.00
31681;BME280;18281;51.364;9.566;2023-09-30T07:23:04;101073.00;;;11.29;100.00
31681;BME280;18281;51.364;9.566;2023-09-30T07:25:30;101080.78;;;11.32;100.00
31681;BME280;18281;51.364;9.566;2023-09-30T07:27:57;101076.19;;;11.37;100.00
31681;BME280;18281;51.364;9.566;2023-09-30T07:30:22;101073.28;;;11.43;100.00
31681;BME280;18281;51.364;9.566;2023-09-30T07:32:47;101077.34;;;11.30;100.00
31681;BME280;18281;51.364;9.566;2023-09-30T07:35:13;101087.34;;;11.42;100.00
31681;BME280;18281;51.364;9.566;2023-09-30T07:37:55;101078.16;;;11.52;100.00
31681;BME280;18281;51.364;9.566;2023-09-30T07:40:20;101087.44;;;11.61;100.00
31681;BME280;18281;51.364;9.566;2023-09-30T07:42:46;101075.59;;;11.51;100.00
31681;BME280;18281;51.364;9.566;2023-09-30T07:48:12;101070.25;;;11.73;100.00
31681;BME280;18281;51.364;9.566;2023-09-30T07:50:37;101067.44;;;11.78;100.00
31681;BME280;18281;51.364;9.566;2023-09-30T07:53:04;101082.38;;;11.77;100.00
31681;BME280;18281;51.364;9.566;2023-09-30T07:55:29;101083.09;;;11.60;100.00
31681;BME280;18281;51.364;9.566;2023-09-30T07:58:03;101079.84;;;11.74;100.00
31681;BME280;18281;51.364;9.566;2023-09-30T08:00:31;101087.78;;;11.95;100.00
31681;BME280;18281;51.364;9.566;2023-09-30T08:08:47;101075.38;;;12.55;100.00
31681;BME280;18281;51.364;9.566;2023-09-30T08:11:12;101065.31;;;12.64;100.00
31681;BME280;18281;51.364;9.566;2023-09-30T08:13:37;101066.38;;;12.79;100.00
31681;BME280;18281;51.364;9.566;2023-09-30T08:16:18;101075.13;;;12.98;100.00
31681;BME280;18281;51.364;9.566;2023-09-30T08:21:51;101080.97;;;13.22;100.00
31681;BME280;18281;51.364;9.566;2023-09-30T08:24:50;101080.53;;;13.32;100.00
31681;BME280;18281;51.364;9.566;2023-09-30T08:27:15;101082.88;;;13.38;100.00
31681;BME280;18281;51.364;9.566;2023-09-30T08:29:40;101087.13;;;13.58;100.00
31681;BME280;18281;51.364;9.566;2023-09-30T08:32:05;101088.59;;;13.64;100.00
31681;BME280;18281;51.364;9.566;2023-09-30T08:34:32;101094.72;;;13.64;100.00
31681;BME280;18281;51.364;9.566;2023-09-30T08:37:01;101096.66;;;13.78;100.00
31681;BME280;18281;51.364;9.566;2023-09-30T08:39:37;101097.91;;;13.88;100.00
31681;BME280;18281;51.364;9.566;2023-09-30T08:42:05;101102.88;;;13.95;100.00
31681;BME280;18281;51.364;9.566;2023-09-30T08:44:39;101099.88;;;14.18;100.00
31681;BME280;18281;51.364;9.566;2023-09-30T08:47:05;101098.78;;;14.22;100.00
31681;BME280;18281;51.364;9.566;2023-09-30T08:49:33;101107.75;;;14.36;100.00
31681;BME280;18281;51.364;9.566;2023-09-30T08:51:59;101105.09;;;14.36;100.00
31681;BME280;18281;51.364;9.566;2023-09-30T08:54:25;101099.06;;;14.50;99.95
31681;BME280;18281;51.364;9.566;2023-09-30T08:56:51;101093.88;;;14.64;99.43
31681;BME280;18281;51.364;9.566;2023-09-30T08:59:16;101098.53;;;14.75;98.90
31681;BME280;18281;51.364;9.566;2023-09-30T09:01:42;101105.38;;;14.79;97.82
31681;BME280;18281;51.364;9.566;2023-09-30T09:04:08;101098.66;;;14.89;97.73
31681;BME280;18281;51.364;9.566;2023-09-30T09:06:33;101098.47;;;14.92;96.69
31681;BME280;18281;51.364;9.566;2023-09-30T09:09:17;101093.19;;;14.92;97.04
31681;BME280;18281;51.364;9.566;2023-09-30T09:11:43;101079.78;;;14.96;96.12
31681;BME280;18281;51.364;9.566;2023-09-30T09:14:09;101081.59;;;14.95;95.28
31681;BME280;18281;51.364;9.566;2023-09-30T09:16:34;101080.25;;;14.88;95.25
31681;BME280;18281;51.364;9.566;2023-09-30T09:18:59;101088.25;;;14.86;94.16
31681;BME280;18281;51.364;9.566;2023-09-30T09:21:37;101087.56;;;14.99;94.33
31681;BME280;18281;51.364;9.566;2023-09-30T09:24:02;101089.41;;;15.13;94.12
31681;BME280;18281;51.364;9.566;2023-09-30T09:26:28;101100.63;;;15.32;92.48
31681;BME280;18281;51.364;9.566;2023-09-30T09:28:58;101093.94;;;15.41;91.57
31681;BME280;18281;51.364;9.566;2023-09-30T09:31:26;101098.88;;;15.47;90.75
31681;BME280;18281;51.364;9.566;2023-09-30T09:33:51;101099.91;;;15.45;90.34
31681;BME280;18281;51.364;9.566;2023-09-30T09:36:17;101108.06;;;15.56;88.84
31681;BME280;18281;51.364;9.566;2023-09-30T09:41:11;101110.50;;;15.89;89.42
31681;BME280;18281;51.364;9.566;2023-09-30T09:43:40;101116.66;;;16.04;88.94
31681;BME280;18281;51.364;9.566;2023-09-30T09:46:07;101113.91;;;16.35;88.93
31681;BME280;18281;51.364;9.566;2023-09-30T09:48:33;101106.44;;;16.27;87.33
31681;BME280;18281;51.364;9.566;2023-09-30T09:51:00;101108.63;;;16.20;87.26
31681;BME280;18281;51.364;9.566;2023-09-30T09:53:26;101104.28;;;16.05;86.85
31681;BME280;18281;51.364;9.566;2023-09-30T09:55:53;101104.56;;;16.00;86.49
31681;BME280;18281;51.364;9.566;2023-09-30T09:58:20;101099.72;;;16.07;85.90
31681;BME280;18281;51.364;9.566;2023-09-30T10:00:46;101088.97;;;16.24;85.68
31681;BME280;18281;51.364;9.566;2023-09-30T10:03:12;101086.84;;;16.44;88.58
31681;BME280;18281;51.364;9.566;2023-09-30T10:05:38;101099.34;;;16.56;88.46
31681;BME280;18281;51.364;9.566;2023-09-30T10:08:05;101099.16;;;16.45;84.60
31681;BME280;18281;51.364;9.566;2023-09-30T10:10:35;101096.50;;;16.59;87.14
31681;BME280;18281;51.364;9.566;2023-09-30T10:13:01;101099.63;;;16.52;88.61
31681;BME280;18281;51.364;9.566;2023-09-30T10:20:38;101089.56;;;16.99;89.77
31681;BME280;18281;51.364;9.566;2023-09-30T10:23:19;101079.94;;;16.83;90.22
31681;BME280;18281;51.364;9.566;2023-09-30T10:25:45;101080.44;;;17.03;91.53
31681;BME280;18281;51.364;9.566;2023-09-30T10:38:56;101068.69;;;17.47;88.04
31681;BME280;18281;51.364;9.566;2023-09-30T10:46:58;101073.31;;;17.31;88.75
31681;BME280;18281;51.364;9.566;2023-09-30T10:51:49;101075.41;;;17.25;88.68
31681;BME280;18281;51.364;9.566;2023-09-30T10:57:34;101070.63;;;17.18;88.75
31681;BME280;18281;51.364;9.566;2023-09-30T11:00:12;101072.75;;;17.25;88.99
31681;BME280;18281;51.364;9.566;2023-09-30T11:02:50;101070.84;;;17.27;88.44
31681;BME280;18281;51.364;9.566;2023-09-30T11:05:16;101072.31;;;17.19;87.54
31681;BME280;18281;51.364;9.566;2023-09-30T11:07:42;101079.78;;;17.26;87.41
31681;BME280;18281;51.364;9.566;2023-09-30T11:10:08;101083.03;;;17.57;86.15
31681;BME280;18281;51.364;9.566;2023-09-30T11:12:37;101070.63;;;17.71;84.88
31681;BME280;18281;51.364;9.566;2023-09-30T11:15:05;101056.41;;;17.72;84.98
31681;BME280;18281;51.364;9.566;2023-09-30T11:17:33;101059.38;;;17.80;84.34
31681;BME280;18281;51.364;9.566;2023-09-30T11:20:08;101053.91;;;17.94;82.76
31681;BME280;18281;51.364;9.566;2023-09-30T11:22:34;101053.28;;;17.78;79.69
31681;BME280;18281;51.364;9.566;2023-09-30T11:25:00;101037.31;;;18.04;81.83
31681;BME280;18281;51.364;9.566;2023-09-30T11:27:25;101037.00;;;18.08;81.15
31681;BME280;18281;51.364;9.566;2023-09-30T11:32:47;101052.81;;;18.36;80.00
31681;BME280;18281;51.364;9.566;2023-09-30T11:35:22;101042.16;;;18.36;78.99
31681;BME280;18281;51.364;9.566;2023-09-30T11:37:48;101042.91;;;18.38;78.54
31681;BME280;18281;51.364;9.566;2023-09-30T11:40:13;101040.97;;;18.40;79.01
31681;BME280;18281;51.364;9.566;2023-09-30T11:42:39;101035.38;;;18.32;78.81
31681;BME280;18281;51.364;9.566;2023-09-30T11:48:20;101037.47;;;17.89;80.15
31681;BME280;18281;51.364;9.566;2023-09-30T11:50:46;101036.13;;;18.08;78.87
31681;BME280;18281;51.364;9.566;2023-09-30T11:53:16;101043.34;;;18.32;77.67
31681;BME280;18281;51.364;9.566;2023-09-30T11:55:41;101044.00;;;18.22;76.87
31681;BME280;18281;51.364;9.566;2023-09-30T11:58:07;101051.84;;;18.37;77.18
31681;BME280;18281;51.364;9.566;2023-09-30T12:00:34;101051.19;;;18.46;75.17
31681;BME280;18281;51.364;9.566;2023-09-30T12:03:00;101050.75;;;18.52;77.14
31681;BME280;18281;51.364;9.566;2023-09-30T12:05:25;101052.66;;;18.50;76.81
31681;BME280;18281;51.364;9.566;2023-09-30T12:07:50;101052.81;;;18.36;78.13
31681;BME280;18281;51.364;9.566;2023-09-30T12:10:15;101047.28;;;18.39;77.40
31681;BME280;18281;51.364;9.566;2023-09-30T12:12:41;101058.13;;;18.36;76.50
31681;BME280;18281;51.364;9.566;2023-09-30T12:15:06;101043.22;;;18.46;77.98
31681;BME280;18281;51.364;9.566;2023-09-30T12:17:33;101034.94;;;18.38;77.26
31681;BME280;18281;51.364;9.566;2023-09-30T12:19:59;101036.66;;;18.39;79.22
31681;BME280;18281;51.364;9.566;2023-09-30T12:22:24;101044.31;;;18.31;79.40
31681;BME280;18281;51.364;9.566;2023-09-30T12:24:50;101033.00;;;18.40;79.70
31681;BME280;18281;51.364;9.566;2023-09-30T12:27:17;101026.81;;;18.52;77.03
31681;BME280;18281;51.364;9.566;2023-09-30T12:29:42;101027.03;;;18.49;75.37
31681;BME280;18281;51.364;9.566;2023-09-30T12:32:07;101025.91;;;18.40;74.99
31681;BME280;18281;51.364;9.566;2023-09-30T12:34:33;101022.59;;;18.37;71.30
31681;BME280;18281;51.364;9.566;2023-09-30T12:36:59;101022.00;;;18.07;69.43
31681;BME280;18281;51.364;9.566;2023-09-30T12:39:24;101014.88;;;18.21;70.95
31681;BME280;18281;51.364;9.566;2023-09-30T12:41:50;101025.22;;;18.50;70.70
31681;BME280;18281;51.364;9.566;2023-09-30T12:44:15;101011.84;;;18.38;69.22
31681;BME280;18281;51.364;9.566;2023-09-30T12:46:42;101004.78;;;18.50;70.02
31681;BME280;18281;51.364;9.566;2023-09-30T12:49:08;101015.16;;;18.42;69.62
31681;BME280;18281;51.364;9.566;2023-09-30T12:51:33;101007.97;;;18.31;68.89
31681;BME280;18281;51.364;9.566;2023-09-30T12:53:59;101001.44;;;18.35;68.95
31681;BME280;18281;51.364;9.566;2023-09-30T12:56:26;101004.56;;;18.53;72.84
31681;BME280;18281;51.364;9.566;2023-09-30T12:58:54;101009.34;;;18.48;72.95
31681;BME280;18281;51.364;9.566;2023-09-30T13:01:19;100997.56;;;18.52;72.00
31681;BME280;18281;51.364;9.566;2023-09-30T13:03:46;100994.16;;;18.50;71.35
31681;BME280;18281;51.364;9.566;2023-09-30T13:06:11;100988.28;;;18.34;71.65
31681;BME280;18281;51.364;9.566;2023-09-30T13:08:36;100989.00;;;18.60;73.28
31681;BME280;18281;51.364;9.566;2023-09-30T13:11:02;100985.66;;;18.69;73.38
31681;BME280;18281;51.364;9.566;2023-09-30T13:13:28;100985.44;;;18.48;72.13
31681;BME280;18281;51.364;9.566;2023-09-30T13:15:54;100984.53;;;18.60;72.69
31681;BME280;18281;51.364;9.566;2023-09-30T13:18:19;100975.91;;;18.46;70.42
31681;BME280;18281;51.364;9.566;2023-09-30T13:20:44;100979.50;;;18.69;72.54
31681;BME280;18281;51.364;9.566;2023-09-30T13:23:09;100972.75;;;18.76;72.16
31681;BME280;18281;51.364;9.566;2023-09-30T13:25:35;100979.00;;;18.64;70.46
31681;BME280;18281;51.364;9.566;2023-09-30T13:28:00;100976.72;;;18.46;70.57
31681;BME280;18281;51.364;9.566;2023-09-30T13:30:26;100973.78;;;18.38;70.60